Latest Weather Observations for Goulburn Airport

IDN60901

Issued at 1:11 pm EST Thursday 29 September 2016 (issued every 10 minutes, with the page automatically refreshed every 10 minutes)

About weather observations | Map of Canberra area stations | Latest observations for Canberra area | Other Formats
Station Details ID: 070330 Name: GOULBURN AIRPORT AWS Lat: -34.81 Lon: 149.73 Height: 640.0 m
Data from the previous 72 hours. | See also: Recent months at Goulburn Airport
Date/Time
EST
Temp
°C
App
Temp
°C
Dew
Point
°C
Rel
Hum
%
Delta-T
°C
Wind Press
QNH
hPa
Press
MSL
hPa
Rain since
9am
mm
Dir  Spd
km/h
Gust
km/h
Spd
kts
Gust
kts
29/01:00pm 14.1 6.6 3.6 49 5.0 NW 32 43 17 23 995.4 995.0 4.6
29/12:30pm 13.3 8.1 5.5 59 3.8 NW 22 35 12 19 995.3 994.9 4.6
29/12:00pm 11.8 6.8 7.9 77 2.0 NW 24 32 13 17 996.0 995.7 4.6
29/11:55am 11.5 6.8 7.8 78 1.9 WNW 22 32 12 17 996.2 995.9 4.6
29/11:36am 11.7 5.2 9.1 84 1.3 NW 33 48 18 26 996.5 996.2 4.6
29/11:30am 11.7 7.0 9.1 84 1.3 NW 24 46 13 25 996.7 996.3 4.6
29/11:29am 11.8 7.1 9.4 85 1.3 NW 24 44 13 24 996.7 996.3 4.6
29/11:20am 10.6 7.4 9.8 95 0.4 NW 17 20 9 11 997.2 996.9 4.4
29/11:00am 10.6 7.4 9.8 95 0.4 NNE 17 22 9 12 997.0 996.7 2.4
29/10:30am 10.2 8.0 9.4 95 0.4 N 11 22 6 12 997.2 996.9 2.2
29/10:09am 9.7 4.8 8.6 93 0.6 NNE 24 35 13 19 997.2 996.9 0.6
29/10:00am 9.9 3.9 8.8 93 0.6 NE 30 37 16 20 997.1 996.8 0.4
29/09:30am 9.4 3.7 8.3 93 0.6 NE 28 39 15 21 997.3 997.0 0.2
29/09:00am 9.1 4.1 8.2 94 0.5 NNE 24 33 13 18 998.3 998.0 3.2
29/08:30am 9.1 2.9 8.0 93 0.5 NE 30 41 16 22 998.4 998.1 2.2
29/08:00am 9.2 3.0 7.8 91 0.7 NE 30 39 16 21 998.8 998.5 1.6
29/07:30am 9.1 3.7 7.9 92 0.6 NE 26 35 14 19 999.5 999.3 1.4
29/07:00am 9.0 4.3 7.8 92 0.6 NE 22 35 12 19 999.7 999.5 1.4
29/06:30am 9.0 3.1 7.6 91 0.7 ENE 28 35 15 19 1000.0 999.7 0.8
29/06:00am 8.9 2.2 7.4 90 0.7 NE 32 39 17 21 1000.0 999.7 0.6
29/05:45am 9.0 2.7 7.3 89 0.8 NE 30 43 16 23 1000.2 999.9 0.4
29/05:30am 8.8 4.9 6.9 88 0.9 NE 17 24 9 13 1000.7 1000.4 0.2
29/05:00am 9.1 6.2 6.5 84 1.3 NE 11 20 6 11 1001.6 1001.3 0.0
29/04:30am 9.2 5.2 6.5 83 1.3 NNE 17 22 9 12 1002.3 1002.1 0.0
29/04:00am 9.3 4.8 6.2 81 1.5 NNE 19 24 10 13 1002.6 1002.4 0.0
29/03:30am 9.2 4.7 6.1 81 1.5 NE 19 24 10 13 1002.4 1002.2 0.0
29/03:00am 9.0 5.2 5.9 81 1.5 NE 15 22 8 12 1002.8 1002.6 0.0
29/02:30am 8.5 5.0 5.3 80 1.5 NE 13 17 7 9 1003.7 1003.5 0.0
29/02:00am 8.8 5.2 5.2 78 1.7 NE 13 20 7 11 1004.8 1004.7 0.0
29/01:30am 8.6 4.3 5.2 79 1.6 NE 17 26 9 14 1005.3 1005.1 0.0
29/01:00am 7.8 5.3 4.7 81 1.4 NNE 7 15 4 8 1005.9 1005.7 0.0
29/12:30am 7.8 5.2 4.4 79 1.5 NE 7 15 4 8 1006.7 1006.5 0.0
29/12:00am 7.8 4.9 4.6 80 1.5 NNE 9 17 5 9 1007.5 1007.4 0.0
 
Date/Time
EST
Temp
°C
App
Temp
°C
Dew
Point
°C
Rel
Hum
%
Delta-T
°C
Wind Press
QNH
hPa
Press
MSL
hPa
Rain since
9am
mm
Dir  Spd
km/h
Gust
km/h
Spd
kts
Gust
kts
28/11:30pm 7.8 4.9 4.4 79 1.5 NNE 9 13 5 7 1007.7 1007.6 0.0
28/11:00pm 8.6 6.1 5.0 78 1.7 NNE 7 11 4 6 1008.1 1008.0 0.0
28/10:30pm 8.7 5.2 5.4 80 1.5 NNE 13 17 7 9 1008.8 1008.6 0.0
28/10:00pm 8.4 5.6 5.3 81 1.4 N 9 13 5 7 1008.9 1008.8 0.0
28/09:30pm 8.9 5.4 5.6 80 1.6 NNE 13 17 7 9 1009.3 1009.2 0.0
28/09:00pm 9.1 5.3 6.0 81 1.5 NNE 15 22 8 12 1009.4 1009.3 0.0
28/08:30pm 9.4 5.7 6.3 81 1.5 NE 15 22 8 12 1009.5 1009.4 0.0
28/08:00pm 9.6 6.3 6.3 80 1.6 NE 13 20 7 11 1009.6 1009.5 0.0
28/07:30pm 10.1 6.4 6.4 78 1.8 ENE 15 22 8 12 1009.6 1009.5 0.0
28/07:00pm 10.4 7.1 6.5 77 1.9 NE 13 20 7 11 1009.6 1009.5 0.0
28/06:30pm 11.3 6.7 6.4 72 2.4 ENE 20 28 11 15 1009.0 1008.9 0.0
28/06:00pm 12.0 7.9 6.3 68 2.8 ENE 17 22 9 12 1008.8 1008.6 0.0
28/05:30pm 13.7 9.2 6.1 60 3.8 ENE 19 26 10 14 1009.0 1008.9 0.0
28/05:00pm 15.4 11.8 4.8 49 5.2 NE 13 17 7 9 1009.1 1009.0 0.0
28/04:30pm 16.2 11.8 2.9 41 6.3 NE 15 22 8 12 1009.1 1009.0 0.0
28/04:00pm 16.3 11.6 3.0 41 6.3 NE 17 22 9 12 1009.0 1008.9 0.0
28/03:30pm 16.0 11.8 1.7 38 6.6 NE 13 24 7 13 1009.6 1009.5 0.0
28/03:00pm 16.1 12.5 3.2 42 6.1 NE 11 19 6 10 1010.1 1009.9 0.0
28/02:30pm 15.6 11.8 3.7 45 5.7 ESE 13 17 7 9 1010.4 1010.3 0.0
28/02:00pm 15.8 13.4 4.5 47 5.5 ENE 6 11 3 6 1011.0 1010.9 0.0
28/01:30pm 15.2 11.4 3.7 46 5.5 ENE 13 22 7 12 1011.8 1011.7 0.0
28/01:00pm 14.4 11.2 3.2 47 5.2 NW 9 19 5 10 1012.2 1012.1 0.0
28/12:30pm 14.1 11.2 2.7 46 5.3 E 7 11 4 6 1012.6 1012.5 0.0
28/12:00pm 13.8 9.7 2.1 45 5.3 NW 13 19 7 10 1012.8 1012.8 0.0
28/11:30am 13.4 9.8 2.9 49 4.8 WNW 11 17 6 9 1013.3 1013.2 0.0
28/11:00am 12.8 9.7 3.7 54 4.2 N 9 13 5 7 1013.8 1013.7 0.0
28/10:30am 12.2 9.4 3.4 55 4.1 NE 7 11 4 6 1014.1 1014.0 0.0
28/10:00am 11.3 8.8 3.8 60 3.5 NW 6 13 3 7 1014.3 1014.3 0.0
28/09:30am 9.9 7.3 4.3 68 2.6 NW 7 11 4 6 1014.5 1014.5 0.0
28/09:00am 9.0 6.7 5.6 79 1.6 NW 7 15 4 8 1014.7 1014.7 0.0
28/08:30am 7.2 4.4 5.0 86 1.0 WNW 9 13 5 7 1015.1 1015.0 0.0
28/08:00am 6.0 3.2 5.3 95 0.3 WNW 9 13 5 7 1015.2 1015.1 0.0
28/07:40am 5.2 2.0 5.1 99 0.0 NW 11 15 6 8 1015.1 1015.0 0.0
28/07:30am 4.6 1.3 4.5 99 0.0 NW 11 15 6 8 1015.1 1015.0 0.0
28/07:00am 3.7 1.0 3.6 99 0.0 NW 7 9 4 5 1015.0 1014.9 0.0
28/06:30am 2.5 -0.8 2.4 99 0.0 NNW 9 11 5 6 1014.6 1014.6 0.0
28/06:27am 2.3 -0.7 2.0 98 0.1 NNW 7 11 4 6 1014.6 1014.6 0.0
28/06:00am 2.4 -1.7 2.3 99 0.0 NNW 13 15 7 8 1014.4 1014.4 0.0
28/05:50am 1.1 -2.5 0.8 98 0.1 NNW 9 11 5 6 1014.1 1014.0 0.0
28/05:30am -0.1 -3.3 -0.7 96 0.2 NNW 6 7 3 4 1013.9 1013.8 0.0
28/05:29am 0.0 -3.2 -0.6 96 0.2 NNW 6 7 3 4 1013.9 1013.8 0.0
28/05:25am 0.3 -2.8 -0.1 97 0.2 NW 6 7 3 4 1013.8 1013.7 0.0
28/05:00am 0.8 -2.3 0.4 97 0.2 NNW 6 7 3 4 1013.8 1013.7 0.0
28/04:43am 1.0 -2.1 0.4 96 0.2 N 6 6 3 3 1013.7 1013.6 0.0
28/04:30am 0.6 -2.5 0.0 96 0.2 N 6 7 3 4 1013.8 1013.7 0.0
28/04:23am 0.7 -2.4 0.1 96 0.2 NNE 6 6 3 3 1013.8 1013.7 0.0
28/04:00am 1.2 -2.4 0.6 96 0.2 NNW 9 11 5 6 1013.8 1013.7 0.0
28/03:30am 1.6 -1.9 1.0 96 0.2 N 9 11 5 6 1013.8 1013.7 0.0
28/03:00am 1.6 -1.4 0.9 95 0.3 NNE 6 7 3 4 1013.7 1013.6 0.0
28/02:30am 2.0 -1.5 1.1 94 0.4 NNW 9 11 5 6 1013.8 1013.7 0.0
28/02:00am 2.2 -1.0 0.9 91 0.5 NW 7 11 4 6 1013.6 1013.5 0.0
28/01:30am 3.2 -0.5 2.3 94 0.4 NW 11 13 6 7 1013.6 1013.5 0.0
28/01:00am 3.7 0.4 2.7 93 0.4 N 9 11 5 6 1013.7 1013.6 0.0
28/12:30am 4.1 0.4 2.1 87 0.8 NW 11 17 6 9 1013.7 1013.6 0.0
28/12:00am 4.2 1.3 2.4 88 0.8 N 7 13 4 7 1013.8 1013.7 0.0
 
Date/Time
EST
Temp
°C
App
Temp
°C
Dew
Point
°C
Rel
Hum
%
Delta-T
°C
Wind Press
QNH
hPa
Press
MSL
hPa
Rain since
9am
mm
Dir  Spd
km/h
Gust
km/h
Spd
kts
Gust
kts
27/11:30pm 4.9 0.6 3.2 89 0.7 W 15 22 8 12 1013.9 1013.8 0.0
27/11:00pm 4.9 1.6 2.4 84 1.1 WNW 9 13 5 7 1013.8 1013.7 0.0
27/10:30pm 5.6 0.5 2.9 83 1.2 WNW 19 26 10 14 1013.7 1013.6 0.0
27/10:00pm 5.6 0.3 2.9 83 1.2 WNW 20 26 11 14 1013.7 1013.6 0.0
27/09:30pm 5.8 0.5 2.8 81 1.3 WNW 20 24 11 13 1013.7 1013.6 0.0
27/09:00pm 6.1 0.7 2.7 79 1.5 W 20 28 11 15 1013.6 1013.5 0.0
27/08:30pm 6.2 0.8 2.5 77 1.6 WNW 20 26 11 14 1013.5 1013.4 0.0
27/08:00pm 6.6 0.5 2.5 75 1.8 W 24 32 13 17 1013.1 1013.1 0.0
27/07:30pm 6.8 1.1 2.7 75 1.8 WNW 22 28 12 15 1013.1 1013.1 0.0
27/07:00pm 7.1 0.1 2.2 71 2.1 W 28 35 15 19 1012.7 1012.6 0.0
27/06:30pm 7.5 0.5 2.2 69 2.3 W 28 37 15 20 1012.4 1012.3 0.0
27/06:00pm 8.1 0.7 1.9 65 2.7 W 30 39 16 21 1011.9 1011.8 0.0
27/05:30pm 9.2 0.4 1.6 59 3.3 WNW 37 48 20 26 1011.6 1011.5 0.0
27/05:00pm 10.0 1.3 1.9 57 3.5 WNW 37 48 20 26 1011.3 1011.2 0.0
27/04:30pm 10.6 1.8 1.4 53 4.0 W 37 50 20 27 1010.9 1010.8 0.0
27/04:00pm 11.1 1.5 1.1 50 4.3 W 41 54 22 29 1010.2 1010.1 0.0
27/03:30pm 11.3 0.9 2.3 54 4.0 W 46 57 25 31 1009.6 1009.5 0.0
27/03:00pm 11.3 1.4 2.6 55 3.9 WNW 44 57 24 31 1009.7 1009.6 0.0
27/02:30pm 11.1 1.2 1.9 53 4.1 WNW 43 57 23 31 1010.1 1009.9 0.0
27/02:00pm 11.7 2.8 3.2 56 3.9 W 39 52 21 28 1010.0 1009.8 0.0
27/01:30pm 11.3 1.9 2.6 55 3.9 W 41 52 22 28 1009.9 1009.7 0.0
27/01:13pm 11.2 1.2 0.9 49 4.4 W 43 61 23 33 1009.7 1009.6 0.0
27/01:00pm 11.4 1.8 1.4 50 4.4 W 41 56 22 30 1009.9 1009.7 0.0
27/12:30pm 10.4 0.3 1.5 54 3.9 W 44 63 24 34 1010.0 1009.8 0.0
27/12:22pm 11.3 1.4 1.8 52 4.2 W 43 61 23 33 1009.9 1009.7 0.0
27/12:00pm 11.8 2.3 1.7 50 4.5 W 41 57 22 31 1009.5 1009.4 0.0
27/11:54am 11.8 2.2 3.3 56 3.9 W 43 61 23 33 1009.5 1009.4 0.0
27/11:30am 10.2 0.1 1.8 56 3.7 W 44 61 24 33 1009.3 1009.2 0.0
27/11:00am 11.7 2.0 3.0 55 4.0 W 43 54 23 29 1009.3 1009.2 0.0
27/10:41am 11.4 1.4 1.9 52 4.2 W 44 63 24 34 1009.3 1009.2 0.0
27/10:30am 10.9 -0.2 2.5 56 3.8 W 50 61 27 33 1009.3 1009.2 0.0
27/10:00am 10.6 0.6 4.1 64 3.0 WNW 46 59 25 32 1009.4 1009.3 0.0
27/09:34am 9.6 0.0 4.4 70 2.4 WNW 44 59 24 32 1009.4 1009.3 0.0
27/09:32am 9.9 0.0 4.9 71 2.3 WNW 46 65 25 35 1009.4 1009.3 0.0
27/09:30am 9.3 -1.1 4.3 71 2.3 WNW 48 65 26 35 1009.4 1009.3 0.0
27/09:18am 9.8 0.4 5.2 73 2.2 WNW 44 63 24 34 1009.2 1009.1 0.0
27/09:00am 8.8 -0.4 5.4 79 1.6 WNW 43 57 23 31 1009.2 1009.1 0.4
27/08:58am 8.7 -0.8 5.1 78 1.7 WNW 44 57 24 31 1009.2 1009.1 0.4
27/08:30am 9.3 0.4 4.9 74 2.0 WNW 41 57 22 31 1009.0 1008.9 0.4
27/08:04am 10.3 3.1 5.7 73 2.2 WNW 33 52 18 28 1008.8 1008.6 0.4
27/08:00am 10.0 2.6 5.2 72 2.3 NW 33 43 18 23 1008.8 1008.6 0.4
27/07:30am 9.9 2.8 5.7 75 2.0 NW 32 44 17 24 1008.7 1008.5 0.4
27/07:00am 8.4 2.4 5.2 80 1.5 NW 26 37 14 20 1009.0 1008.9 0.4
27/06:30am 7.8 2.8 4.7 81 1.4 NW 20 26 11 14 1009.3 1009.2 0.4
27/06:00am 6.2 1.7 4.4 88 0.8 NW 17 24 9 13 1009.7 1009.6 0.4
27/05:30am 4.4 1.3 3.5 94 0.4 NW 9 13 5 7 1010.2 1010.1 0.0
27/05:00am 2.7 0.9 1.2 90 0.6 CALM 0 0 0 0 1010.1 1009.9 0.0
27/04:30am 2.9 -0.3 1.0 87 0.8 NNW 7 9 4 5 1010.3 1010.2 0.0
27/04:00am 3.5 0.1 2.0 90 0.6 NNW 9 13 5 7 1010.6 1010.5 0.0
27/03:30am 3.6 0.2 2.1 90 0.6 N 9 11 5 6 1010.7 1010.6 0.0
27/03:00am 1.7 -1.4 0.2 90 0.6 WNW 6 7 3 4 1010.8 1010.7 0.0
27/02:30am 2.3 -1.1 -0.3 83 1.0 WNW 7 9 4 5 1010.9 1010.8 0.0
27/02:00am 3.8 1.3 1.8 87 0.8 WNW 4 7 2 4 1011.4 1011.3 0.0
27/01:30am 3.2 0.3 1.4 88 0.7 W 6 7 3 4 1012.1 1012.0 0.0
27/01:00am 3.2 -0.4 0.9 85 0.9 W 9 11 5 6 1012.3 1012.2 0.0
27/12:30am 4.9 1.1 1.7 80 1.3 NNW 11 17 6 9 1012.5 1012.4 0.0
27/12:00am 4.8 0.7 2.5 85 1.0 WNW 13 17 7 9 1012.6 1012.5 0.0
 
Date/Time
EST
Temp
°C
App
Temp
°C
Dew
Point
°C
Rel
Hum
%
Delta-T
°C
Wind Press
QNH
hPa
Press
MSL
hPa
Rain since
9am
mm
Dir  Spd
km/h
Gust
km/h
Spd
kts
Gust
kts
26/11:30pm 5.4 0.2 2.4 81 1.3 W 19 20 10 11 1012.8 1012.8 0.0
26/11:00pm 5.1 0.6 2.3 82 1.2 WNW 15 17 8 9 1013.0 1013.0 0.0
26/10:30pm 5.1 0.2 2.1 81 1.3 WNW 17 19 9 10 1013.3 1013.2 0.0
26/10:00pm 5.8 0.4 2.4 79 1.4 WNW 20 24 11 13 1013.5 1013.4 0.0
26/09:30pm 6.3 0.2 2.8 78 1.5 WNW 24 28 13 15 1013.4 1013.3 0.0
26/09:00pm 6.4 1.0 2.7 77 1.6 WNW 20 28 11 15 1013.3 1013.2 0.0
26/08:30pm 6.3 0.9 2.4 76 1.7 WNW 20 26 11 14 1013.0 1013.0 0.0
26/08:00pm 7.2 1.1 2.7 73 2.0 W 24 30 13 16 1012.8 1012.8 0.0
26/07:30pm 8.4 0.7 2.4 66 2.6 WNW 32 39 17 21 1012.7 1012.6 0.0
26/07:00pm 8.5 0.8 2.5 66 2.6 WNW 32 39 17 21 1012.5 1012.4 0.0
26/06:30pm 8.4 1.1 2.2 65 2.7 W 30 43 16 23 1012.5 1012.4 0.0
26/06:00pm 9.0 0.8 2.8 65 2.7 WNW 35 41 19 22 1012.2 1012.1 0.0
26/05:30pm 9.6 2.0 2.7 62 3.1 W 32 39 17 21 1012.0 1011.9 0.0
26/05:00pm 10.7 3.5 2.8 58 3.6 W 30 39 16 21 1011.7 1011.6 0.0
26/04:30pm 10.3 1.6 1.7 55 3.8 W 37 50 20 27 1011.3 1011.2 0.0
26/04:00pm 10.5 1.3 1.3 53 4.0 WNW 39 48 21 26 1011.1 1011.0 0.0
26/03:30pm 10.9 3.1 2.0 54 3.9 WNW 32 44 17 24 1011.1 1011.0 0.0
26/03:00pm 10.9 2.1 1.4 52 4.1 WNW 37 44 20 24 1011.0 1010.9 0.0
26/02:30pm 11.0 2.4 0.4 48 4.5 WNW 35 43 19 23 1011.1 1011.0 0.0
26/02:00pm 11.4 2.2 1.1 49 4.5 WNW 39 50 21 27 1011.2 1011.1 0.0
26/01:30pm 11.1 3.6 3.2 58 3.6 WNW 32 41 17 22 1011.4 1011.3 0.0

Latest Capital City Observations: Canberra | Sydney | Melbourne | Brisbane | Adelaide | Perth | Hobart | Darwin

Other Formats:

Comma delimited format used in spreadsheet applications
http://www.bom.gov.au/fwo/IDN60903/IDN60903.95716.axf

JavaScript Object Notation format (JSON) in row-major order
http://www.bom.gov.au/fwo/IDN60903/IDN60903.95716.json